createdAt,value
2017-06-02T00:02:52.579Z,30.51
2017-06-02T00:03:52.514Z,30.7
2017-06-02T00:04:52.454Z,30.8
2017-06-02T00:05:52.086Z,30.99
2017-06-02T00:06:52.327Z,30.22
2017-06-02T00:07:52.266Z,30.51
2017-06-02T00:08:51.899Z,30.61
2017-06-02T00:09:52.137Z,30.7
2017-06-02T00:10:52.075Z,30.61
2017-06-02T00:11:52.014Z,30.61
2017-06-02T00:12:51.953Z,30.61
2017-06-02T00:13:51.586Z,30.61
2017-06-02T00:14:51.826Z,30.7
2017-06-02T00:15:51.459Z,30.41
2017-06-02T00:16:51.702Z,30.41
2017-06-02T00:17:51.641Z,30.51
2017-06-02T00:18:51.579Z,30.7
2017-06-02T00:19:51.511Z,30.61
2017-06-02T00:20:51.451Z,30.61
2017-06-02T00:21:51.389Z,30.51
2017-06-02T00:22:51.023Z,30.61
2017-06-02T00:23:51.262Z,30.51
2017-06-02T00:24:51.202Z,30.8
2017-06-02T00:25:51.140Z,30.7
2017-06-02T00:26:51.082Z,30.7
2017-06-02T00:27:51.013Z,30.8
2017-06-02T00:28:50.951Z,30.8
2017-06-02T00:29:50.889Z,30.8
2017-06-02T00:30:50.827Z,30.7
2017-06-02T00:31:50.764Z,30.8
2017-06-02T00:32:50.400Z,30.7
2017-06-02T00:33:50.638Z,30.7
2017-06-02T00:34:50.579Z,30.8
2017-06-02T00:35:50.514Z,30.8
2017-06-02T00:36:50.460Z,30.7
2017-06-02T00:37:50.393Z,30.8
2017-06-02T00:38:50.328Z,30.9
2017-06-02T00:39:49.963Z,30.9
2017-06-02T00:40:50.207Z,30.8
2017-06-02T00:41:50.141Z,30.7
2017-06-02T00:42:50.078Z,30.8
2017-06-02T00:43:50.015Z,30.9
2017-06-02T00:44:49.952Z,30.8
2017-06-02T00:45:49.890Z,30.9
2017-06-02T00:46:49.827Z,30.8
2017-06-02T00:47:49.768Z,30.9
2017-06-02T00:48:49.761Z,30.8
2017-06-02T00:49:49.640Z,30.9
2017-06-02T00:50:49.577Z,30.8
2017-06-02T00:51:49.516Z,30.7
2017-06-02T00:52:49.456Z,30.7
2017-06-02T00:53:49.394Z,30.9
2017-06-02T00:54:49.329Z,30.61
2017-06-02T00:55:49.265Z,30.7
2017-06-02T00:56:49.203Z,30.8
2017-06-02T00:57:49.140Z,30.61
2017-06-02T00:58:49.086Z,30.7
2017-06-02T00:59:48.714Z,30.9
2017-06-02T01:00:48.953Z,30.8
2017-06-02T01:01:48.893Z,31.09
2017-06-02T01:02:48.836Z,30.8
2017-06-02T01:03:48.765Z,30.99
2017-06-02T01:04:48.705Z,30.51
2017-06-02T01:05:48.642Z,30.8
2017-06-02T01:06:48.577Z,30.8
2017-06-02T01:07:48.517Z,30.99
2017-06-02T01:08:48.455Z,30.9
2017-06-02T01:09:48.394Z,30.9
2017-06-02T01:10:48.352Z,30.9
2017-06-02T01:11:48.266Z,30.99
2017-06-02T01:12:48.204Z,30.9
2017-06-02T01:13:48.143Z,30.51
2017-06-02T01:14:47.777Z,30.9
2017-06-02T01:15:47.715Z,30.61
2017-06-02T01:16:47.655Z,30.7
2017-06-02T01:17:47.588Z,30.61
2017-06-02T01:18:47.831Z,30.7
2017-06-02T01:19:47.765Z,30.61
2017-06-02T01:20:47.703Z,30.99
2017-06-02T01:21:47.646Z,30.99
2017-06-02T01:22:47.582Z,30.99
2017-06-02T01:23:47.518Z,30.9
2017-06-02T01:24:47.455Z,30.8
2017-06-02T01:25:47.091Z,30.99
2017-06-02T01:26:47.332Z,30.51
2017-06-02T01:27:47.270Z,30.51
2017-06-02T01:28:47.206Z,30.99
2017-06-02T01:29:47.141Z,30.7
2017-06-02T01:30:47.080Z,30.9
2017-06-02T01:31:47.017Z,30.7
2017-06-02T01:32:46.958Z,30.9
2017-06-02T01:33:46.892Z,30.9
2017-06-02T01:34:48.035Z,30.99
2017-06-02T01:35:46.769Z,30.99
2017-06-02T01:36:46.708Z,30.7
2017-06-02T01:37:46.644Z,30.99
2017-06-02T01:38:46.581Z,30.99
2017-06-02T01:39:46.518Z,30.99
2017-06-02T01:40:46.458Z,31.09
2017-06-02T01:41:46.394Z,30.99
2017-06-02T01:42:46.331Z,30.8
2017-06-02T01:43:46.267Z,31.09
2017-06-02T01:44:46.205Z,31.09
2017-06-02T01:45:46.141Z,31.09
2017-06-02T01:46:46.079Z,31.18
2017-06-02T01:47:46.036Z,31.18
2017-06-02T01:48:45.957Z,30.99
2017-06-02T01:49:45.894Z,31.09
2017-06-02T01:50:45.830Z,31.09
2017-06-02T01:51:45.768Z,31.18
2017-06-02T01:52:45.708Z,30.99
2017-06-02T01:53:45.646Z,31.09
2017-06-02T01:54:45.580Z,31.09
2017-06-02T01:55:45.519Z,31.09
2017-06-02T01:56:45.458Z,31.09
2017-06-02T01:57:45.394Z,31.18
2017-06-02T01:58:45.331Z,31.18
2017-06-02T01:59:45.266Z,31.28
2017-06-02T02:00:45.060Z,31.28
2017-06-02T02:01:44.856Z,31.18
2017-06-02T02:02:44.780Z,31.18
2017-06-02T02:03:45.020Z,31.09
2017-06-02T02:04:44.957Z,31.09
2017-06-02T02:05:44.893Z,31.38
2017-06-02T02:06:44.831Z,31.28
2017-06-02T02:07:44.768Z,31.18
2017-06-02T02:08:44.706Z,31.09
2017-06-02T02:09:44.643Z,31.28
2017-06-02T02:10:44.584Z,31.28
2017-06-02T02:11:44.518Z,31.09
2017-06-02T02:12:44.466Z,31.09
2017-06-02T02:13:44.394Z,31.18
2017-06-02T02:14:44.334Z,31.28
2017-06-02T02:15:44.271Z,31.18
2017-06-02T02:16:44.209Z,31.28
2017-06-02T02:17:43.841Z,31.09
2017-06-02T02:18:44.084Z,31.48
2017-06-02T02:19:44.022Z,31.18
2017-06-02T02:20:43.957Z,31.28
2017-06-02T02:21:43.911Z,31.38
2017-06-02T02:22:43.831Z,31.28
2017-06-02T02:23:43.770Z,31.48
2017-06-02T02:24:43.720Z,31.28
2017-06-02T02:25:43.664Z,31.38
2017-06-02T02:26:43.583Z,31.38
2017-06-02T02:27:43.518Z,31.38
2017-06-02T02:28:43.455Z,31.38
2017-06-02T02:29:43.394Z,31.28
2017-06-02T02:30:43.332Z,31.18
2017-06-02T02:31:43.286Z,31.28
2017-06-02T02:32:43.209Z,31.28
2017-06-02T02:33:43.145Z,31.18
2017-06-02T02:34:43.086Z,31.28
2017-06-02T02:35:43.019Z,31.18
2017-06-02T02:36:42.960Z,31.28
2017-06-02T02:37:42.898Z,31.28
2017-06-02T02:38:42.831Z,31.28
2017-06-02T02:39:42.770Z,31.28
2017-06-02T02:40:42.709Z,31.18
2017-06-02T02:41:42.651Z,30.9
2017-06-02T02:42:42.581Z,31.28
2017-06-02T02:43:42.519Z,31.28
2017-06-02T02:44:42.457Z,31.38
2017-06-02T02:45:42.108Z,31.18
2017-06-02T02:46:42.334Z,31.28
2017-06-02T02:47:42.271Z,31.48
2017-06-02T02:48:42.206Z,31.28
2017-06-02T02:49:42.143Z,30.99
2017-06-02T02:50:42.084Z,30.99
2017-06-02T02:51:42.020Z,31.57
2017-06-02T02:52:41.956Z,30.99
2017-06-02T02:53:41.895Z,31.09
2017-06-02T02:54:41.831Z,30.99
2017-06-02T02:55:41.768Z,31.57
2017-06-02T02:56:41.708Z,30.99
2017-06-02T02:57:41.645Z,31.18
2017-06-02T02:58:41.585Z,31.48
2017-06-02T02:59:41.520Z,31.18
2017-06-02T03:00:41.458Z,31.57
2017-06-02T03:01:41.398Z,31.57
2017-06-02T03:02:41.334Z,31.57
2017-06-02T03:03:41.268Z,31.18
2017-06-02T03:04:41.207Z,31.57
2017-06-02T03:05:41.146Z,31.38
2017-06-02T03:06:41.083Z,31.67
2017-06-02T03:07:40.722Z,31.38
2017-06-02T03:08:40.958Z,31.48
2017-06-02T03:09:40.898Z,31.48
2017-06-02T03:10:40.834Z,31.28
2017-06-02T03:11:40.768Z,31.38
2017-06-02T03:12:40.712Z,31.28
2017-06-02T03:13:40.646Z,31.28
2017-06-02T03:14:40.280Z,31.28
2017-06-02T03:15:40.220Z,31.38
2017-06-02T03:16:40.468Z,31.28
2017-06-02T03:17:40.395Z,31.38
2017-06-02T03:18:40.336Z,31.48
2017-06-02T03:19:40.270Z,31.28
2017-06-02T03:20:40.209Z,31.57
2017-06-02T03:21:40.146Z,31.28
2017-06-02T03:22:40.083Z,31.57
2017-06-02T03:23:40.019Z,31.48
2017-06-02T03:24:39.958Z,31.48
2017-06-02T03:25:39.897Z,31.38
2017-06-02T03:26:39.833Z,31.48
2017-06-02T03:27:39.770Z,31.57
2017-06-02T03:28:39.708Z,31.48
2017-06-02T03:29:39.342Z,31.48
2017-06-02T03:30:39.584Z,31.57
2017-06-02T03:31:39.520Z,31.48
2017-06-02T03:32:39.460Z,31.57
2017-06-02T03:33:39.395Z,31.48
2017-06-02T03:34:39.334Z,31.48
2017-06-02T03:35:39.274Z,31.38
2017-06-02T03:36:39.207Z,31.48
2017-06-02T03:37:39.145Z,31.48
2017-06-02T03:38:39.082Z,31.38
2017-06-02T03:39:39.020Z,31.48
2017-06-02T03:40:38.957Z,31.48
2017-06-02T03:41:38.898Z,31.57
2017-06-02T03:42:38.832Z,31.38
2017-06-02T03:43:38.770Z,31.48
2017-06-02T03:44:38.708Z,31.57
2017-06-02T03:45:38.650Z,31.67
2017-06-02T03:46:38.584Z,31.67
2017-06-02T03:47:38.534Z,31.76
2017-06-02T03:48:38.457Z,31.67
2017-06-02T03:49:38.395Z,31.76
2017-06-02T03:50:38.335Z,31.67
2017-06-02T03:51:38.270Z,31.76
2017-06-02T03:52:38.210Z,31.76
2017-06-02T03:53:38.146Z,31.57
2017-06-02T03:54:38.097Z,31.76
2017-06-02T03:55:38.029Z,32.06
2017-06-02T03:56:37.677Z,31.76
2017-06-02T03:57:37.894Z,31.86
2017-06-02T03:58:37.838Z,31.76
2017-06-02T03:59:37.769Z,31.67
2017-06-02T04:00:37.706Z,31.86
2017-06-02T04:01:37.656Z,31.96
2017-06-02T04:02:37.593Z,31.96
2017-06-02T04:03:37.518Z,31.86
2017-06-02T04:04:37.466Z,31.76
2017-06-02T04:05:37.428Z,31.86
2017-06-02T04:06:37.332Z,31.86
2017-06-02T04:07:37.281Z,31.96
2017-06-02T04:08:37.215Z,31.96
2017-06-02T04:09:37.154Z,31.86
2017-06-02T04:10:37.081Z,31.76
2017-06-02T04:11:36.737Z,31.86
2017-06-02T04:12:36.965Z,31.86
2017-06-02T04:13:36.892Z,31.76
2017-06-02T04:14:36.830Z,31.76
2017-06-02T04:15:36.481Z,32.06
2017-06-02T04:16:36.704Z,32.24
2017-06-02T04:17:36.642Z,32.24
2017-06-02T04:18:36.580Z,31.67
2017-06-02T04:19:36.217Z,31.57
2017-06-02T04:20:36.455Z,32.06
2017-06-02T04:21:36.394Z,32.15
2017-06-02T04:22:36.028Z,32.34
2017-06-02T04:23:36.269Z,31.86
2017-06-02T04:24:36.204Z,32.06
2017-06-02T04:25:35.839Z,31.76
2017-06-02T04:26:36.081Z,31.67
2017-06-02T04:27:36.017Z,32.34
2017-06-02T04:28:35.958Z,32.54
2017-06-02T04:29:35.591Z,32.44
2017-06-02T04:30:35.829Z,32.34
2017-06-02T04:31:35.767Z,32.73
2017-06-02T04:32:35.707Z,32.64
2017-06-02T04:33:35.644Z,32.64
2017-06-02T04:34:35.581Z,32.92
2017-06-02T04:35:35.519Z,32.82
2017-06-02T04:36:35.457Z,32.64
2017-06-02T04:37:35.396Z,33.02
2017-06-02T04:38:35.331Z,33.22
2017-06-02T04:39:35.270Z,33.12
2017-06-02T04:40:35.305Z,33.12
2017-06-02T04:41:35.155Z,33.12
2017-06-02T04:42:35.087Z,33.22
2017-06-02T04:43:35.016Z,33.4
2017-06-02T04:44:34.653Z,33.6
2017-06-02T04:45:34.892Z,33.7
2017-06-02T04:46:34.527Z,33.4
2017-06-02T04:47:34.765Z,33.8
2017-06-02T04:48:34.705Z,33.6
2017-06-02T04:49:34.639Z,33.87
2017-06-02T04:50:34.582Z,33.48
2017-06-02T04:51:34.518Z,33.7
2017-06-02T04:52:34.451Z,33.58
2017-06-02T04:53:34.390Z,33.48
2017-06-02T04:54:34.326Z,33.68
2017-06-02T04:55:34.266Z,33.87
2017-06-02T04:56:34.204Z,33.02
2017-06-02T04:57:34.139Z,33.8
2017-06-02T04:58:34.078Z,33.89
2017-06-02T04:59:34.014Z,33.87
2017-06-02T05:00:33.949Z,33.87
2017-06-02T05:01:33.888Z,33.87
2017-06-02T05:02:33.523Z,33.78
2017-06-02T05:03:33.764Z,33.78
2017-06-02T05:04:33.699Z,34.06
2017-06-02T05:05:33.639Z,33.98
2017-06-02T05:06:33.584Z,34.26
2017-06-02T05:07:33.511Z,33.39
2017-06-02T05:08:33.447Z,34.16
2017-06-02T05:09:33.394Z,34.16
2017-06-02T05:10:33.328Z,33.87
2017-06-02T05:11:33.259Z,34.36
2017-06-02T05:12:33.196Z,34.64
2017-06-02T05:13:33.137Z,34.56
2017-06-02T05:14:33.073Z,34.36
2017-06-02T05:15:33.007Z,34.16
2017-06-02T05:16:32.642Z,34.45
2017-06-02T05:17:32.580Z,34.94
2017-06-02T05:18:32.517Z,34.26
2017-06-02T05:19:32.759Z,35.03
2017-06-02T05:20:32.712Z,34.36
2017-06-02T05:21:32.633Z,34.64
2017-06-02T05:22:32.291Z,34.74
2017-06-02T05:23:32.503Z,34.16
2017-06-02T05:24:32.444Z,34.55
2017-06-02T05:25:32.390Z,34.74
2017-06-02T05:26:32.322Z,34.16
2017-06-02T05:27:32.259Z,34.16
2017-06-02T05:28:32.198Z,34.55
2017-06-02T05:29:32.129Z,34.55
2017-06-02T05:30:31.763Z,34.06
2017-06-02T05:31:32.003Z,34.55
2017-06-02T05:32:31.939Z,34.64
2017-06-02T05:33:31.888Z,34.64
2017-06-02T05:34:31.814Z,34.84
2017-06-02T05:35:31.755Z,34.26
2017-06-02T05:36:31.689Z,34.64
2017-06-02T05:37:31.623Z,34.74
2017-06-02T05:38:31.564Z,34.64
2017-06-02T05:39:31.501Z,34.55
2017-06-02T05:40:31.438Z,34.74
2017-06-02T05:41:31.376Z,34.26
2017-06-02T05:42:31.008Z,34.55
2017-06-02T05:43:31.248Z,34.55
2017-06-02T05:44:31.184Z,34.26
2017-06-02T05:45:31.123Z,34.55
2017-06-02T05:46:30.757Z,34.55
2017-06-02T05:47:30.999Z,34.55
2017-06-02T05:48:30.933Z,34.26
2017-06-02T05:49:30.870Z,34.06
2017-06-02T05:50:30.808Z,34.74
2017-06-02T05:51:30.756Z,34.55
2017-06-02T05:52:30.681Z,34.45
2017-06-02T05:53:30.620Z,34.94
2017-06-02T05:54:30.556Z,35.03
2017-06-02T05:55:30.500Z,34.45
2017-06-02T05:56:30.430Z,34.36
2017-06-02T05:57:30.369Z,34.45
2017-06-02T05:58:30.306Z,35.03
2017-06-02T05:59:30.246Z,34.45
2017-06-02T06:00:30.179Z,34.84
2017-06-02T06:01:30.119Z,35.03
2017-06-02T06:02:30.053Z,34.74
2017-06-02T06:03:29.989Z,34.74
2017-06-02T06:04:29.928Z,34.45
2017-06-02T06:05:29.866Z,34.74
2017-06-02T06:06:29.803Z,34.64
2017-06-02T06:07:29.741Z,34.74
2017-06-02T06:08:29.677Z,34.74
2017-06-02T06:09:29.619Z,34.55
2017-06-02T06:10:29.552Z,35.13
2017-06-02T06:11:29.490Z,35.32
2017-06-02T06:12:29.429Z,34.94
2017-06-02T06:13:29.361Z,35.13
2017-06-02T06:14:29.298Z,35.13
2017-06-02T06:15:29.239Z,35.13
2017-06-02T06:16:29.177Z,34.74
2017-06-02T06:17:29.111Z,34.74
2017-06-02T06:18:29.045Z,34.64
2017-06-02T06:19:28.984Z,34.74
2017-06-02T06:20:28.921Z,34.64
2017-06-02T06:21:28.557Z,34.74
2017-06-02T06:22:28.794Z,34.84
2017-06-02T06:23:28.731Z,35.03
2017-06-02T06:24:28.670Z,34.74
2017-06-02T06:25:28.759Z,34.55
2017-06-02T06:26:28.549Z,34.36
2017-06-02T06:27:28.480Z,34.94
2017-06-02T06:28:28.420Z,34.36
2017-06-02T06:29:28.358Z,34.74
2017-06-02T06:30:28.295Z,34.45
2017-06-02T06:31:28.231Z,34.36
2017-06-02T06:32:28.166Z,34.55
2017-06-02T06:33:28.103Z,34.36
2017-06-02T06:34:28.043Z,34.26
2017-06-02T06:35:27.976Z,34.36
2017-06-02T06:36:27.917Z,34.36
2017-06-02T06:37:27.852Z,34.55
2017-06-02T06:38:27.792Z,34.45
2017-06-02T06:39:27.425Z,34.26
2017-06-02T06:40:27.665Z,34.64
2017-06-02T06:41:27.604Z,34.45
2017-06-02T06:42:27.537Z,34.26
2017-06-02T06:43:27.175Z,34.74
2017-06-02T06:44:27.109Z,34.64
2017-06-02T06:45:27.049Z,34.26
2017-06-02T06:46:26.987Z,34.06
2017-06-02T06:47:27.225Z,34.64
2017-06-02T06:48:27.159Z,34.64
2017-06-02T06:49:27.098Z,34.64
2017-06-02T06:50:27.035Z,34.64
2017-06-02T06:51:26.972Z,34.84
2017-06-02T06:52:26.908Z,34.74
2017-06-02T06:53:26.847Z,34.74
2017-06-02T06:54:26.784Z,34.26
2017-06-02T06:55:26.725Z,34.64
2017-06-02T06:56:26.659Z,34.26
2017-06-02T06:57:26.813Z,34.45
2017-06-02T06:58:26.531Z,34.45
2017-06-02T06:59:26.469Z,33.39
2017-06-02T07:00:26.406Z,33.87
2017-06-02T07:01:26.344Z,33.97
2017-06-02T07:02:26.282Z,33.87
2017-06-02T07:03:26.217Z,33.97
2017-06-02T07:04:26.154Z,33.48
2017-06-02T07:05:26.095Z,33.97
2017-06-02T07:06:26.032Z,33.87
2017-06-02T07:07:25.966Z,33.58
2017-06-02T07:08:25.902Z,33.39
2017-06-02T07:09:25.840Z,33.39
2017-06-02T07:10:25.778Z,33
2017-06-02T07:11:25.713Z,33.1
2017-06-02T07:12:25.651Z,33
2017-06-02T07:13:25.290Z,32.81
2017-06-02T07:14:25.528Z,32.52
2017-06-02T07:15:25.463Z,32.71
2017-06-02T07:16:25.410Z,32.43
2017-06-02T07:17:25.350Z,32.43
2017-06-02T07:18:25.276Z,32.52
2017-06-02T07:19:25.216Z,32.52
2017-06-02T07:20:25.153Z,32.43
2017-06-02T07:21:25.094Z,32.33
2017-06-02T07:22:25.024Z,32.52
2017-06-02T07:23:24.964Z,32.52
2017-06-02T07:24:24.900Z,32.52
2017-06-02T07:25:24.837Z,32.33
2017-06-02T07:26:24.775Z,31.75
2017-06-02T07:27:24.715Z,32.14
2017-06-02T07:28:25.067Z,32.23
2017-06-02T07:29:24.584Z,31.94
2017-06-02T07:30:24.525Z,31.75
2017-06-02T07:31:24.460Z,31.75
2017-06-02T07:32:24.093Z,31.75
2017-06-02T07:33:24.335Z,31.85
2017-06-02T07:34:24.270Z,31.65
2017-06-02T07:35:24.218Z,31.56
2017-06-02T07:36:24.155Z,31.46
2017-06-02T07:37:24.115Z,31.46
2017-06-02T07:38:23.718Z,31.46
2017-06-02T07:39:23.957Z,31.46
2017-06-02T07:40:23.602Z,31.27
2017-06-02T07:41:23.830Z,31.07
2017-06-02T07:42:23.770Z,31.17
2017-06-02T07:43:23.712Z,31.46
2017-06-02T07:44:23.652Z,31.27
2017-06-02T07:45:23.278Z,31.17
2017-06-02T07:46:23.518Z,31.18
2017-06-02T07:47:23.460Z,30.69
2017-06-02T07:48:23.392Z,30.88
2017-06-02T07:49:23.027Z,30.88
2017-06-02T07:50:22.967Z,30.88
2017-06-02T07:51:23.205Z,30.98
2017-06-02T07:52:23.140Z,30.69
2017-06-02T07:53:22.789Z,30.88
2017-06-02T07:54:23.017Z,30.79
2017-06-02T07:55:22.951Z,30.59
2017-06-02T07:56:22.891Z,30.88
2017-06-02T07:57:22.829Z,30.49
2017-06-02T07:58:22.764Z,30.59
2017-06-02T07:59:22.701Z,30.3
2017-06-02T08:00:22.637Z,30.49
2017-06-02T08:01:22.577Z,30.3
2017-06-02T08:02:22.513Z,30.49
2017-06-02T08:03:22.449Z,30.49
2017-06-02T08:04:22.087Z,30.9
2017-06-02T08:05:22.426Z,30.88
2017-06-02T08:06:22.265Z,30.69
2017-06-02T08:07:22.199Z,30.88
2017-06-02T08:08:22.141Z,30.79
2017-06-02T08:09:22.074Z,30.88
2017-06-02T08:10:22.165Z,30.88
2017-06-02T08:11:21.948Z,30.98
2017-06-02T08:12:21.915Z,31.07
2017-06-02T08:13:21.822Z,31.27
2017-06-02T08:14:21.761Z,31.27
2017-06-02T08:15:21.697Z,31.56
2017-06-02T08:16:21.640Z,31.38
2017-06-02T08:17:21.568Z,31.37
2017-06-02T08:18:21.516Z,31.56
2017-06-02T08:19:21.447Z,31.75
2017-06-02T08:20:21.382Z,31.94
2017-06-02T08:21:21.320Z,32.04
2017-06-02T08:22:20.955Z,32.04
2017-06-02T08:23:21.193Z,31.94
2017-06-02T08:24:21.130Z,32.44
2017-06-02T08:25:21.069Z,32.44
2017-06-02T08:26:21.006Z,32.62
2017-06-02T08:27:20.942Z,32.64
2017-06-02T08:28:20.884Z,32.64
2017-06-02T08:29:20.816Z,32.92
2017-06-02T08:30:20.754Z,32.82
2017-06-02T08:31:20.725Z,32.73
2017-06-02T08:32:20.626Z,33.02
2017-06-02T08:33:20.566Z,32.92
2017-06-02T08:34:20.505Z,32.92
2017-06-02T08:35:20.442Z,33.12
2017-06-02T08:36:20.088Z,33.5
2017-06-02T08:37:20.316Z,33.5
2017-06-02T08:38:20.254Z,33.89
2017-06-02T08:39:20.189Z,33.31
2017-06-02T08:40:20.128Z,33.8
2017-06-02T08:41:20.067Z,33.6
2017-06-02T08:42:20.005Z,33.98
2017-06-02T08:43:19.944Z,33.89
2017-06-02T08:44:19.882Z,33.7
2017-06-02T08:45:19.864Z,34.08
2017-06-02T08:46:19.751Z,33.4
2017-06-02T08:47:19.685Z,33.5
2017-06-02T08:48:19.622Z,34.38
2017-06-02T08:49:19.259Z,34.18
2017-06-02T08:50:19.499Z,34.38
2017-06-02T08:51:19.439Z,34.56
2017-06-02T08:52:19.070Z,34.47
2017-06-02T08:53:19.312Z,34.86
2017-06-02T08:54:19.250Z,34.95
2017-06-02T08:55:19.186Z,35.05
2017-06-02T08:56:19.130Z,34.76
2017-06-02T08:57:18.760Z,34.66
2017-06-02T08:58:18.998Z,34.56
2017-06-02T08:59:18.935Z,34.56
2017-06-02T09:00:18.871Z,34.18
2017-06-02T09:01:18.810Z,34.28
2017-06-02T09:02:18.746Z,34.28
2017-06-02T09:03:18.687Z,34.08
2017-06-02T09:04:18.622Z,35.53
2017-06-02T09:05:18.563Z,34.38
2017-06-02T09:06:18.497Z,35.05
2017-06-02T09:07:18.456Z,34.38
2017-06-02T09:08:18.382Z,33.4
2017-06-02T09:09:18.309Z,33.5
2017-06-02T09:10:18.243Z,33.4
2017-06-02T09:11:18.182Z,33.02
2017-06-02T09:12:18.120Z,33.22
2017-06-02T09:13:18.057Z,33.89
2017-06-02T09:14:17.994Z,33.31
2017-06-02T09:15:17.931Z,33.89
2017-06-02T09:16:17.869Z,33.5
2017-06-02T09:17:17.808Z,33.12
2017-06-02T09:18:17.744Z,33.5
2017-06-02T09:19:17.381Z,33.31
2017-06-02T09:20:17.625Z,33.4
2017-06-02T09:21:17.558Z,32.92
2017-06-02T09:22:17.494Z,32.92
2017-06-02T09:23:17.429Z,32.54
2017-06-02T09:24:17.369Z,32.15
2017-06-02T09:25:17.308Z,31.86
2017-06-02T09:26:17.242Z,32.24
2017-06-02T09:27:17.179Z,31.57
2017-06-02T09:28:17.118Z,31.76
2017-06-02T09:29:17.054Z,31.38
2017-06-02T09:30:16.993Z,30.99
2017-06-02T09:31:16.629Z,31.48
2017-06-02T09:32:16.869Z,31.28
2017-06-02T09:33:16.803Z,31.09
2017-06-02T09:34:16.745Z,30.8
2017-06-02T09:35:16.834Z,30.9
2017-06-02T09:36:16.672Z,30.8
2017-06-02T09:37:16.557Z,30.8
2017-06-02T09:38:16.190Z,30.8
2017-06-02T09:39:16.429Z,30.51
2017-06-02T09:40:16.365Z,30.61
2017-06-02T09:41:16.303Z,30.32
2017-06-02T09:42:16.241Z,30.51
2017-06-02T09:43:16.203Z,30.32
2017-06-02T09:44:16.121Z,30.51
2017-06-02T09:45:16.052Z,30.12
2017-06-02T09:46:15.990Z,30.12
2017-06-02T09:47:15.925Z,29.64
2017-06-02T09:48:15.864Z,29.55
2017-06-02T09:49:15.802Z,29.74
2017-06-02T09:50:15.739Z,29.83
2017-06-02T09:51:15.675Z,29.25
2017-06-02T09:52:15.614Z,29.06
2017-06-02T09:53:15.548Z,28.97
2017-06-02T09:54:15.488Z,28.67
2017-06-02T09:55:15.432Z,28.76
2017-06-02T09:56:15.362Z,28.67
2017-06-02T09:57:15.000Z,28.85
2017-06-02T09:58:15.237Z,28.87
2017-06-02T09:59:15.172Z,28.67
2017-06-02T10:00:15.115Z,28.85
2017-06-02T10:01:15.047Z,29.05
2017-06-02T10:02:14.984Z,29.06
2017-06-02T10:03:14.920Z,28.87
2017-06-02T10:04:14.858Z,28.95
2017-06-02T10:05:14.798Z,28.87
2017-06-02T10:06:14.736Z,28.77
2017-06-02T10:07:14.671Z,28.58
2017-06-02T10:08:14.615Z,28.85
2017-06-02T10:09:14.244Z,28.95
2017-06-02T10:10:14.485Z,28.87
2017-06-02T10:11:14.419Z,28.58
2017-06-02T10:12:14.059Z,28.77
2017-06-02T10:13:14.293Z,28.48
2017-06-02T10:14:14.233Z,28.48
2017-06-02T10:15:14.270Z,28.77
2017-06-02T10:16:13.809Z,28.48
2017-06-02T10:17:14.057Z,28.29
2017-06-02T10:18:13.982Z,28.58
2017-06-02T10:19:13.628Z,28.29
2017-06-02T10:20:14.175Z,28.67
2017-06-02T10:21:13.791Z,28.39
2017-06-02T10:22:13.736Z,28.19
2017-06-02T10:23:13.667Z,28.09
2017-06-02T10:24:13.607Z,28.48
2017-06-02T10:25:13.539Z,28.67
2017-06-02T10:26:13.482Z,28.66
2017-06-02T10:27:13.417Z,28.37
2017-06-02T10:28:13.054Z,28.48
2017-06-02T10:29:13.290Z,28.39
2017-06-02T10:30:13.231Z,28.09
2017-06-02T10:31:13.169Z,27.61
2017-06-02T10:32:13.103Z,28
2017-06-02T10:33:13.040Z,27.42
2017-06-02T10:34:12.978Z,27.81
2017-06-02T10:35:12.912Z,27.51
2017-06-02T10:36:12.850Z,27.51
2017-06-02T10:37:12.794Z,27.5
2017-06-02T10:38:12.728Z,27.61
2017-06-02T10:39:12.661Z,27.51
2017-06-02T10:40:12.598Z,27.13
2017-06-02T10:41:12.543Z,27.13
2017-06-02T10:42:12.475Z,27.42
2017-06-02T10:43:12.410Z,27.13
2017-06-02T10:44:12.349Z,27.03
2017-06-02T10:45:11.986Z,26.84
2017-06-02T10:46:11.923Z,27.33
2017-06-02T10:47:12.159Z,27.51
2017-06-02T10:48:12.097Z,27.81
2017-06-02T10:49:12.049Z,27.42
2017-06-02T10:50:26.871Z,27.51
2017-06-02T10:51:11.618Z,27.51
2017-06-02T10:52:11.853Z,27.23
2017-06-02T10:53:11.783Z,27.33
2017-06-02T10:54:11.724Z,27.61
2017-06-02T10:55:11.659Z,27.42
2017-06-02T10:56:11.295Z,27.51
2017-06-02T10:57:11.236Z,27.51
2017-06-02T10:58:11.482Z,26.75
2017-06-02T10:59:26.007Z,27.13
2017-06-02T11:00:11.348Z,27.13
2017-06-02T11:01:10.985Z,27.13
2017-06-02T11:02:11.238Z,26.93
2017-06-02T11:03:11.161Z,27.03
2017-06-02T11:04:11.095Z,27.13
2017-06-02T11:05:11.034Z,27.42
2017-06-02T11:06:10.671Z,26.93
2017-06-02T11:07:10.625Z,26.55
2017-06-02T11:08:10.846Z,26.93
2017-06-02T11:09:10.795Z,26.55
2017-06-02T11:10:10.727Z,26.75
2017-06-02T11:11:10.667Z,26.55
2017-06-02T11:12:10.610Z,26.75
2017-06-02T11:13:10.545Z,26.65
2017-06-02T11:14:10.178Z,26.45
2017-06-02T11:15:10.406Z,26.45
2017-06-02T11:16:10.049Z,26.45
2017-06-02T11:17:09.996Z,26.35
2017-06-02T11:18:09.931Z,26.26
2017-06-02T11:19:09.885Z,26.26
2017-06-02T11:20:10.132Z,26.26
2017-06-02T11:21:09.783Z,26.17
2017-06-02T11:22:09.971Z,25.97
2017-06-02T11:23:09.923Z,25.97
2017-06-02T11:24:09.540Z,26.07
2017-06-02T11:25:09.485Z,25.87
2017-06-02T11:26:09.412Z,25.86
2017-06-02T11:27:09.657Z,25.78
2017-06-02T11:28:09.588Z,25.68
2017-06-02T11:29:09.229Z,25.87
2017-06-02T11:30:09.160Z,25.87
2017-06-02T11:31:09.096Z,25.78
2017-06-02T11:32:09.354Z,25.68
2017-06-02T11:33:08.974Z,25.68
2017-06-02T11:34:09.212Z,25.49
2017-06-02T11:35:09.149Z,25.59
2017-06-02T11:36:09.090Z,25.59
2017-06-02T11:37:09.032Z,25.68
2017-06-02T11:38:08.962Z,25.49
2017-06-02T11:39:08.895Z,25.2
2017-06-02T11:40:08.530Z,25.29
2017-06-02T11:41:08.801Z,25.1
2017-06-02T11:42:08.708Z,25.01
2017-06-02T11:43:08.645Z,24.91
2017-06-02T11:44:08.582Z,24.91
2017-06-02T11:45:08.520Z,24.72
2017-06-02T11:46:08.455Z,25.01
2017-06-02T11:47:08.394Z,24.72
2017-06-02T11:48:08.333Z,24.91
2017-06-02T11:49:08.269Z,24.72
2017-06-02T11:50:08.204Z,25.1
2017-06-02T11:51:08.145Z,24.81
2017-06-02T11:52:07.786Z,24.71
2017-06-02T11:53:08.015Z,24.81
2017-06-02T11:54:07.652Z,24.61
2017-06-02T11:55:07.896Z,24.52
2017-06-02T11:56:07.830Z,24.51
2017-06-02T11:57:07.768Z,24.43
2017-06-02T11:58:07.706Z,24.33
2017-06-02T11:59:07.644Z,24.43
2017-06-02T12:00:07.576Z,24.51
2017-06-02T12:01:07.534Z,24.41
2017-06-02T12:02:07.457Z,24.52
2017-06-02T12:03:07.391Z,24.91
2017-06-02T12:04:07.328Z,24.72
2017-06-02T12:05:07.263Z,24.71
2017-06-02T12:06:07.203Z,24.72
2017-06-02T12:07:07.139Z,24.91
2017-06-02T12:08:07.074Z,24.91
2017-06-02T12:09:07.014Z,24.62
2017-06-02T12:10:06.963Z,24.81
2017-06-02T12:11:06.892Z,24.43
2017-06-02T12:12:06.826Z,24.81
2017-06-02T12:13:06.762Z,24.52
2017-06-02T12:14:06.697Z,24.43
2017-06-02T12:15:06.634Z,24.03
2017-06-02T12:16:06.577Z,24.03
2017-06-02T12:17:06.518Z,24.52
2017-06-02T12:18:06.495Z,24.51
2017-06-02T12:19:06.395Z,24.52
2017-06-02T12:20:06.322Z,24.13
2017-06-02T12:21:06.256Z,24.51
2017-06-02T12:22:06.198Z,24.04
2017-06-02T12:23:06.134Z,24.43
2017-06-02T12:24:06.072Z,24.32
2017-06-02T12:25:06.013Z,24.14
2017-06-02T12:26:05.947Z,24.14
2017-06-02T12:27:05.883Z,24.22
2017-06-02T12:28:05.516Z,24.32
2017-06-02T12:29:05.755Z,23.74
2017-06-02T12:30:05.692Z,23.94
2017-06-02T12:31:05.629Z,23.65
2017-06-02T12:32:05.569Z,23.55
2017-06-02T12:33:05.504Z,23.83
2017-06-02T12:34:05.442Z,23.27
2017-06-02T12:35:05.378Z,24.23
2017-06-02T12:36:05.318Z,23.65
2017-06-02T12:37:04.952Z,23.93
2017-06-02T12:38:05.191Z,23.46
2017-06-02T12:39:05.128Z,23.65
2017-06-02T12:40:05.066Z,23.45
2017-06-02T12:41:05.004Z,23.56
2017-06-02T12:42:04.940Z,23.45
2017-06-02T12:43:04.884Z,23.08
2017-06-02T12:44:04.825Z,23.27
2017-06-02T12:45:04.752Z,23.74
2017-06-02T12:46:04.391Z,23.07
2017-06-02T12:47:04.625Z,23.25
2017-06-02T12:48:04.563Z,22.77
2017-06-02T12:49:04.500Z,23.45
2017-06-02T12:50:04.453Z,22.97
2017-06-02T12:51:04.374Z,23.45
2017-06-02T12:52:04.011Z,22.78
2017-06-02T12:53:04.265Z,22.77
2017-06-02T12:54:04.187Z,23.46
2017-06-02T12:55:04.120Z,23.07
2017-06-02T12:56:04.056Z,22.49
2017-06-02T12:57:04.000Z,22.97
2017-06-02T12:58:03.668Z,22.97